Saint Martin, MN (56376)

6:55 AM CDT on September 25, 2016 (GMT -0500)
Paynesville | | Change Station

Elev 1181 ft 45.37 °N, 94.74 °W | Updated 22 minutes ago

Mostly Cloudy
Mostly Cloudy
58 °F
Feels Like 58 °F
N
5
Wind Variable Wind from WSW

Today
High -- | Low -- °F
--% Chance of Precip.
Yesterday
High -- | Low -- °F
Precip. -- in
Pressure 29.88 in
Visibility 10.0 miles
Clouds Scattered Clouds 2100 ft
Scattered Clouds 3100 ft
Mostly Cloudy 11000 ft
Dew Point 56 °F
Humidity 94%
Rainfall 0.02 in
Snow Depth Not available.
7:10 AM 7:09 PM
Waning Crescent, 28% visible
METAR KPEX 251133Z AUTO 24004KT 10SM SCT021 SCT031 BKN110 14/13 A2988 RMK AO2 T01430134
Pressure 29.88 in
Visibility 10.0 miles
Clouds Scattered Clouds 2100 ft
Scattered Clouds 3100 ft
Mostly Cloudy 11000 ft
Dew Point 56 °F
Humidity 94%
Rainfall 0.02 in
Snow Depth Not available.
7:10 AM 7:09 PM
Waning Crescent, 28% visible
METAR KPEX 251133Z AUTO 24004KT 10SM SCT021 SCT031 BKN110 14/13 A2988 RMK AO2 T01430134

10-Day Weather Forecast

Almanac

Astronomy

Sep. 25, 2016 Rise Set
Actual Time
Civil Twilight
Nautical Twilight
Astronomical Twilight
Moon
Length of Visible Light
Length of Day
Tomorrow will be .
, % of the Moon is Illuminated

Today's Extremes

State Highs State Lows

Community

WunderPhotos

Upload Photos

1,941,579 photos uploaded!

WunderBlog® & News

Nearby

Air Quality

  Air Quality AQ Index Pollutant
Not available.

Snow Depth

Station Depth Elevation

Earthquake Activity

City Distance Mag. Time & Date
Minimum magnitude displayed is 2.5.

Coastal Water Temperatures

Place Temperature

Stations

Nearby Weather Stations

Station Location Temp. Windchill Dew Point Humidity Wind Precip. Elev Updated Type
                   

Watches & Warnings

There are currently no watches in effect.